sensor_id;sensor_type;location;lat;lon;timestamp;pressure;altitude;pressure_sealevel;temperature;humidity
30598;BME280;17365;48.878;8.334;2023-02-13T00:02:10;102010.84;;;5.26;88.77
30598;BME280;17365;48.878;8.334;2023-02-13T00:04:35;102016.44;;;5.19;89.24
30598;BME280;17365;48.878;8.334;2023-02-13T00:07:01;102015.47;;;5.01;89.39
30598;BME280;17365;48.878;8.334;2023-02-13T00:09:26;102009.03;;;5.09;89.78
30598;BME280;17365;48.878;8.334;2023-02-13T00:11:51;102011.28;;;5.03;90.28
30598;BME280;17365;48.878;8.334;2023-02-13T00:14:17;102007.41;;;4.95;90.52
30598;BME280;17365;48.878;8.334;2023-02-13T00:16:42;102011.44;;;5.06;89.85
30598;BME280;17365;48.878;8.334;2023-02-13T00:19:07;102008.78;;;4.88;90.26
30598;BME280;17365;48.878;8.334;2023-02-13T00:21:32;102011.88;;;4.83;91.06
30598;BME280;17365;48.878;8.334;2023-02-13T00:23:58;102017.88;;;4.52;92.23
30598;BME280;17365;48.878;8.334;2023-02-13T00:26:23;102008.88;;;4.75;91.45
30598;BME280;17365;48.878;8.334;2023-02-13T00:28:48;102010.28;;;4.54;92.61
30598;BME280;17365;48.878;8.334;2023-02-13T00:31:16;102013.94;;;4.74;91.05
30598;BME280;17365;48.878;8.334;2023-02-13T00:33:42;102015.66;;;4.58;91.09
30598;BME280;17365;48.878;8.334;2023-02-13T00:36:16;102008.63;;;4.71;90.67
30598;BME280;17365;48.878;8.334;2023-02-13T00:38:42;102008.59;;;4.54;92.38
30598;BME280;17365;48.878;8.334;2023-02-13T00:41:08;102002.97;;;4.61;92.06
30598;BME280;17365;48.878;8.334;2023-02-13T00:43:34;101999.88;;;4.67;91.96
30598;BME280;17365;48.878;8.334;2023-02-13T00:46:00;102003.03;;;4.78;91.43
30598;BME280;17365;48.878;8.334;2023-02-13T00:48:26;102002.69;;;4.72;91.65
30598;BME280;17365;48.878;8.334;2023-02-13T00:50:52;101998.78;;;4.63;91.88
30598;BME280;17365;48.878;8.334;2023-02-13T00:53:22;101993.56;;;4.62;91.75
30598;BME280;17365;48.878;8.334;2023-02-13T00:55:47;102001.19;;;4.60;92.04
30598;BME280;17365;48.878;8.334;2023-02-13T00:58:13;101999.16;;;4.70;91.65
30598;BME280;17365;48.878;8.334;2023-02-13T01:00:39;102001.75;;;4.40;91.95
30598;BME280;17365;48.878;8.334;2023-02-13T01:03:05;102009.47;;;4.55;91.65
30598;BME280;17365;48.878;8.334;2023-02-13T01:05:31;102014.25;;;4.34;92.99
30598;BME280;17365;48.878;8.334;2023-02-13T01:07:56;102016.53;;;4.59;91.33
30598;BME280;17365;48.878;8.334;2023-02-13T01:10:22;102020.81;;;4.29;92.46
30598;BME280;17365;48.878;8.334;2023-02-13T01:12:47;102017.16;;;3.96;94.39
30598;BME280;17365;48.878;8.334;2023-02-13T01:15:13;102021.44;;;4.25;93.07
30598;BME280;17365;48.878;8.334;2023-02-13T01:17:38;102017.00;;;4.22;92.90
30598;BME280;17365;48.878;8.334;2023-02-13T01:20:08;102019.13;;;4.15;93.02
30598;BME280;17365;48.878;8.334;2023-02-13T01:22:34;102020.56;;;4.24;92.65
30598;BME280;17365;48.878;8.334;2023-02-13T01:24:59;102027.16;;;4.06;92.39
30598;BME280;17365;48.878;8.334;2023-02-13T01:27:27;102022.50;;;4.28;90.92
30598;BME280;17365;48.878;8.334;2023-02-13T01:29:52;102022.41;;;4.27;90.06
30598;BME280;17365;48.878;8.334;2023-02-13T01:32:18;102024.25;;;4.00;90.74
30598;BME280;17365;48.878;8.334;2023-02-13T01:34:43;102019.03;;;4.13;89.90
30598;BME280;17365;48.878;8.334;2023-02-13T01:37:08;102022.66;;;4.02;89.45
30598;BME280;17365;48.878;8.334;2023-02-13T01:39:34;102024.97;;;3.55;89.40
30598;BME280;17365;48.878;8.334;2023-02-13T01:41:59;102026.56;;;3.53;90.92
30598;BME280;17365;48.878;8.334;2023-02-13T01:44:49;102025.56;;;3.22;90.23
30598;BME280;17365;48.878;8.334;2023-02-13T01:47:21;102019.22;;;3.59;89.94
30598;BME280;17365;48.878;8.334;2023-02-13T01:49:48;102024.34;;;3.59;89.07
30598;BME280;17365;48.878;8.334;2023-02-13T01:52:16;102026.25;;;3.48;88.97
30598;BME280;17365;48.878;8.334;2023-02-13T01:54:42;102024.44;;;3.32;90.05
30598;BME280;17365;48.878;8.334;2023-02-13T01:57:17;102022.53;;;3.02;90.38
30598;BME280;17365;48.878;8.334;2023-02-13T01:59:54;102023.28;;;3.14;91.12
30598;BME280;17365;48.878;8.334;2023-02-13T02:02:21;102021.47;;;2.98;91.89
30598;BME280;17365;48.878;8.334;2023-02-13T02:04:47;102025.50;;;3.08;91.85
30598;BME280;17365;48.878;8.334;2023-02-13T02:07:18;102023.88;;;3.23;90.65
30598;BME280;17365;48.878;8.334;2023-02-13T02:09:45;102029.63;;;3.19;90.22
30598;BME280;17365;48.878;8.334;2023-02-13T02:12:23;102030.03;;;2.99;88.96
30598;BME280;17365;48.878;8.334;2023-02-13T02:14:52;102036.81;;;3.11;89.86
30598;BME280;17365;48.878;8.334;2023-02-13T02:17:18;102038.28;;;3.21;89.09
30598;BME280;17365;48.878;8.334;2023-02-13T02:22:59;102039.63;;;2.88;89.81
30598;BME280;17365;48.878;8.334;2023-02-13T02:25:53;102035.59;;;2.65;90.13
30598;BME280;17365;48.878;8.334;2023-02-13T02:45:27;102029.75;;;2.54;90.84
30598;BME280;17365;48.878;8.334;2023-02-13T02:47:58;102022.47;;;2.47;91.67
30598;BME280;17365;48.878;8.334;2023-02-13T02:50:50;102022.16;;;2.69;90.42
30598;BME280;17365;48.878;8.334;2023-02-13T02:58:39;102017.28;;;2.08;93.02
30598;BME280;17365;48.878;8.334;2023-02-13T03:01:27;102018.53;;;2.39;92.71
30598;BME280;17365;48.878;8.334;2023-02-13T03:04:19;102021.47;;;2.45;91.29
30598;BME280;17365;48.878;8.334;2023-02-13T03:07:07;102022.56;;;2.49;91.28
30598;BME280;17365;48.878;8.334;2023-02-13T03:09:40;102022.06;;;2.54;90.66
30598;BME280;17365;48.878;8.334;2023-02-13T03:12:30;102023.66;;;2.39;91.35
30598;BME280;17365;48.878;8.334;2023-02-13T03:15:16;102026.91;;;2.50;90.92
30598;BME280;17365;48.878;8.334;2023-02-13T03:17:42;102027.06;;;2.26;92.10
30598;BME280;17365;48.878;8.334;2023-02-13T03:23:44;102032.69;;;2.21;90.85
30598;BME280;17365;48.878;8.334;2023-02-13T03:26:36;102030.03;;;2.46;90.33
30598;BME280;17365;48.878;8.334;2023-02-13T03:32:39;102044.59;;;2.20;91.32
30598;BME280;17365;48.878;8.334;2023-02-13T03:38:34;102049.81;;;2.35;90.14
30598;BME280;17365;48.878;8.334;2023-02-13T03:41:12;102062.91;;;2.26;90.32
30598;BME280;17365;48.878;8.334;2023-02-13T03:43:59;102069.22;;;2.18;89.77
30598;BME280;17365;48.878;8.334;2023-02-13T03:46:26;102075.25;;;2.32;90.48
30598;BME280;17365;48.878;8.334;2023-02-13T03:48:53;102077.53;;;2.41;89.75
30598;BME280;17365;48.878;8.334;2023-02-13T03:51:48;102078.25;;;2.13;90.97
30598;BME280;17365;48.878;8.334;2023-02-13T03:54:22;102091.34;;;2.04;90.62
30598;BME280;17365;48.878;8.334;2023-02-13T03:57:11;102084.47;;;1.92;92.02
30598;BME280;17365;48.878;8.334;2023-02-13T04:00:00;102091.75;;;1.86;91.69
30598;BME280;17365;48.878;8.334;2023-02-13T04:02:30;102089.31;;;2.00;91.86
30598;BME280;17365;48.878;8.334;2023-02-13T04:05:06;102089.84;;;2.08;90.51
30598;BME280;17365;48.878;8.334;2023-02-13T04:07:33;102091.44;;;2.06;90.78
30598;BME280;17365;48.878;8.334;2023-02-13T04:10:05;102100.41;;;1.88;91.90
30598;BME280;17365;48.878;8.334;2023-02-13T04:15:15;102092.09;;;1.79;90.90
30598;BME280;17365;48.878;8.334;2023-02-13T04:17:51;102092.28;;;1.93;89.58
30598;BME280;17365;48.878;8.334;2023-02-13T04:20:18;102095.50;;;1.91;90.97
30598;BME280;17365;48.878;8.334;2023-02-13T04:22:45;102091.53;;;1.83;90.95
30598;BME280;17365;48.878;8.334;2023-02-13T04:25:13;102088.50;;;1.88;90.71
30598;BME280;17365;48.878;8.334;2023-02-13T04:27:39;102093.94;;;1.93;90.58
30598;BME280;17365;48.878;8.334;2023-02-13T04:30:05;102091.00;;;1.75;91.37
30598;BME280;17365;48.878;8.334;2023-02-13T04:32:31;102090.78;;;1.72;91.33
30598;BME280;17365;48.878;8.334;2023-02-13T04:34:56;102090.00;;;1.48;91.95
30598;BME280;17365;48.878;8.334;2023-02-13T04:37:21;102091.72;;;1.61;92.41
30598;BME280;17365;48.878;8.334;2023-02-13T04:39:47;102089.91;;;1.71;91.72
30598;BME280;17365;48.878;8.334;2023-02-13T04:42:12;102084.56;;;1.68;91.86
30598;BME280;17365;48.878;8.334;2023-02-13T04:44:37;102086.34;;;1.69;92.42
30598;BME280;17365;48.878;8.334;2023-02-13T04:47:03;102082.09;;;1.82;91.90
30598;BME280;17365;48.878;8.334;2023-02-13T04:49:28;102081.59;;;1.62;92.98
30598;BME280;17365;48.878;8.334;2023-02-13T04:51:53;102081.00;;;1.66;92.35
30598;BME280;17365;48.878;8.334;2023-02-13T04:54:18;102079.03;;;1.62;92.34
30598;BME280;17365;48.878;8.334;2023-02-13T04:56:44;102080.59;;;1.60;91.22
30598;BME280;17365;48.878;8.334;2023-02-13T04:59:09;102078.50;;;1.55;91.17
30598;BME280;17365;48.878;8.334;2023-02-13T05:01:34;102069.50;;;1.60;91.14
30598;BME280;17365;48.878;8.334;2023-02-13T05:04:00;102070.97;;;1.69;90.80
30598;BME280;17365;48.878;8.334;2023-02-13T05:06:25;102076.63;;;1.52;91.31
30598;BME280;17365;48.878;8.334;2023-02-13T05:08:50;102079.25;;;1.65;90.86
30598;BME280;17365;48.878;8.334;2023-02-13T05:11:15;102079.06;;;1.51;90.92
30598;BME280;17365;48.878;8.334;2023-02-13T05:13:41;102077.16;;;1.60;90.14
30598;BME280;17365;48.878;8.334;2023-02-13T05:16:06;102079.75;;;1.48;91.01
30598;BME280;17365;48.878;8.334;2023-02-13T05:18:31;102080.59;;;1.60;90.25
30598;BME280;17365;48.878;8.334;2023-02-13T05:20:56;102072.22;;;1.38;91.48
30598;BME280;17365;48.878;8.334;2023-02-13T05:23:40;102072.94;;;1.60;90.48
30598;BME280;17365;48.878;8.334;2023-02-13T05:26:06;102078.09;;;1.49;91.22
30598;BME280;17365;48.878;8.334;2023-02-13T05:28:31;102075.13;;;1.67;90.66
30598;BME280;17365;48.878;8.334;2023-02-13T05:31:15;102078.59;;;1.56;91.04
30598;BME280;17365;48.878;8.334;2023-02-13T05:33:41;102079.38;;;1.55;91.59
30598;BME280;17365;48.878;8.334;2023-02-13T05:36:06;102075.66;;;1.75;91.19
30598;BME280;17365;48.878;8.334;2023-02-13T05:38:32;102077.66;;;1.67;91.42
30598;BME280;17365;48.878;8.334;2023-02-13T05:40:58;102075.41;;;1.84;90.77
30598;BME280;17365;48.878;8.334;2023-02-13T05:43:24;102063.38;;;1.83;91.30
30598;BME280;17365;48.878;8.334;2023-02-13T05:45:50;102073.28;;;1.78;90.93
30598;BME280;17365;48.878;8.334;2023-02-13T05:48:16;102070.59;;;1.63;91.55
30598;BME280;17365;48.878;8.334;2023-02-13T05:50:41;102071.78;;;1.68;90.95
30598;BME280;17365;48.878;8.334;2023-02-13T05:53:07;102069.44;;;1.71;90.73
30598;BME280;17365;48.878;8.334;2023-02-13T05:55:32;102077.91;;;1.70;90.73
30598;BME280;17365;48.878;8.334;2023-02-13T05:57:57;102071.91;;;1.70;90.87
30598;BME280;17365;48.878;8.334;2023-02-13T06:00:23;102081.97;;;1.80;90.37
30598;BME280;17365;48.878;8.334;2023-02-13T06:02:48;102080.69;;;1.37;93.36
30598;BME280;17365;48.878;8.334;2023-02-13T06:05:13;102080.06;;;1.53;92.68
30598;BME280;17365;48.878;8.334;2023-02-13T06:07:38;102086.22;;;1.68;92.93
30598;BME280;17365;48.878;8.334;2023-02-13T06:10:04;102081.22;;;1.33;94.41
30598;BME280;17365;48.878;8.334;2023-02-13T06:12:30;102077.94;;;1.47;94.41
30598;BME280;17365;48.878;8.334;2023-02-13T06:14:55;102078.59;;;1.56;94.47
30598;BME280;17365;48.878;8.334;2023-02-13T06:17:20;102076.22;;;1.34;96.06
30598;BME280;17365;48.878;8.334;2023-02-13T06:19:45;102078.84;;;1.59;95.71
30598;BME280;17365;48.878;8.334;2023-02-13T06:22:11;102083.50;;;1.53;95.96
30598;BME280;17365;48.878;8.334;2023-02-13T06:24:36;102078.09;;;1.49;96.57
30598;BME280;17365;48.878;8.334;2023-02-13T06:27:01;102081.91;;;1.67;95.57
30598;BME280;17365;48.878;8.334;2023-02-13T06:29:27;102081.63;;;1.51;95.21
30598;BME280;17365;48.878;8.334;2023-02-13T06:31:52;102082.34;;;1.73;94.28
30598;BME280;17365;48.878;8.334;2023-02-13T06:34:17;102083.06;;;1.47;94.90
30598;BME280;17365;48.878;8.334;2023-02-13T06:36:42;102080.22;;;1.31;95.42
30598;BME280;17365;48.878;8.334;2023-02-13T06:39:09;102084.59;;;1.20;96.00
30598;BME280;17365;48.878;8.334;2023-02-13T06:41:35;102085.03;;;1.63;94.80
30598;BME280;17365;48.878;8.334;2023-02-13T06:44:00;102084.88;;;1.48;96.44
30598;BME280;17365;48.878;8.334;2023-02-13T06:46:25;102087.13;;;1.68;95.89
30598;BME280;17365;48.878;8.334;2023-02-13T06:48:51;102091.69;;;1.72;96.28
30598;BME280;17365;48.878;8.334;2023-02-13T06:51:16;102090.44;;;1.42;97.20
30598;BME280;17365;48.878;8.334;2023-02-13T06:53:41;102091.88;;;1.75;96.84
30598;BME280;17365;48.878;8.334;2023-02-13T06:56:08;102095.09;;;1.85;96.75
30598;BME280;17365;48.878;8.334;2023-02-13T06:58:33;102093.81;;;1.91;97.03
30598;BME280;17365;48.878;8.334;2023-02-13T07:00:58;102101.72;;;1.94;97.62
30598;BME280;17365;48.878;8.334;2023-02-13T07:03:24;102104.38;;;1.96;97.57
30598;BME280;17365;48.878;8.334;2023-02-13T07:05:49;102105.56;;;1.76;98.66
30598;BME280;17365;48.878;8.334;2023-02-13T07:08:16;102108.97;;;1.88;98.48
30598;BME280;17365;48.878;8.334;2023-02-13T07:10:42;102117.72;;;1.92;98.66
30598;BME280;17365;48.878;8.334;2023-02-13T07:13:08;102115.84;;;1.64;100.00
30598;BME280;17365;48.878;8.334;2023-02-13T07:15:34;102120.47;;;1.82;100.00
30598;BME280;17365;48.878;8.334;2023-02-13T07:18:01;102124.97;;;1.97;100.00
30598;BME280;17365;48.878;8.334;2023-02-13T07:20:27;102124.22;;;2.12;99.11
30598;BME280;17365;48.878;8.334;2023-02-13T07:22:52;102126.16;;;2.02;100.00
30598;BME280;17365;48.878;8.334;2023-02-13T07:25:18;102127.72;;;2.00;100.00
30598;BME280;17365;48.878;8.334;2023-02-13T07:27:43;102137.03;;;2.12;100.00
30598;BME280;17365;48.878;8.334;2023-02-13T07:30:09;102134.09;;;1.94;100.00
30598;BME280;17365;48.878;8.334;2023-02-13T07:32:34;102137.16;;;2.26;99.23
30598;BME280;17365;48.878;8.334;2023-02-13T07:34:59;102146.31;;;2.23;99.66
30598;BME280;17365;48.878;8.334;2023-02-13T07:37:26;102143.97;;;2.26;99.99
30598;BME280;17365;48.878;8.334;2023-02-13T07:39:52;102144.97;;;2.28;98.85
30598;BME280;17365;48.878;8.334;2023-02-13T07:42:17;102142.75;;;2.46;99.75
30598;BME280;17365;48.878;8.334;2023-02-13T07:44:43;102140.50;;;2.50;98.96
30598;BME280;17365;48.878;8.334;2023-02-13T07:47:08;102146.81;;;2.55;98.89
30598;BME280;17365;48.878;8.334;2023-02-13T07:49:34;102139.22;;;2.57;99.40
30598;BME280;17365;48.878;8.334;2023-02-13T07:52:01;102142.56;;;2.56;98.64
30598;BME280;17365;48.878;8.334;2023-02-13T07:54:26;102147.56;;;2.41;99.26
30598;BME280;17365;48.878;8.334;2023-02-13T07:56:51;102144.38;;;2.70;100.00
30598;BME280;17365;48.878;8.334;2023-02-13T07:59:17;102138.53;;;2.59;99.42
30598;BME280;17365;48.878;8.334;2023-02-13T08:01:42;102147.34;;;2.63;100.00
30598;BME280;17365;48.878;8.334;2023-02-13T08:04:07;102152.16;;;2.72;100.00
30598;BME280;17365;48.878;8.334;2023-02-13T08:06:33;102147.22;;;2.61;100.00
30598;BME280;17365;48.878;8.334;2023-02-13T08:08:58;102153.72;;;2.70;100.00
30598;BME280;17365;48.878;8.334;2023-02-13T08:11:42;102157.53;;;2.25;100.00
30598;BME280;17365;48.878;8.334;2023-02-13T08:14:24;102156.47;;;2.59;100.00
30598;BME280;17365;48.878;8.334;2023-02-13T08:16:50;102156.84;;;2.39;100.00
30598;BME280;17365;48.878;8.334;2023-02-13T08:19:16;102154.63;;;2.32;100.00
30598;BME280;17365;48.878;8.334;2023-02-13T08:21:42;102154.69;;;2.58;100.00
30598;BME280;17365;48.878;8.334;2023-02-13T08:24:07;102151.06;;;2.68;100.00
30598;BME280;17365;48.878;8.334;2023-02-13T08:26:33;102148.84;;;2.48;100.00
30598;BME280;17365;48.878;8.334;2023-02-13T08:28:58;102148.13;;;2.62;100.00
30598;BME280;17365;48.878;8.334;2023-02-13T08:31:24;102158.22;;;2.22;100.00
30598;BME280;17365;48.878;8.334;2023-02-13T08:33:49;102153.06;;;2.34;100.00
30598;BME280;17365;48.878;8.334;2023-02-13T08:36:15;102154.69;;;2.58;100.00
30598;BME280;17365;48.878;8.334;2023-02-13T08:38:40;102157.97;;;2.31;100.00
30598;BME280;17365;48.878;8.334;2023-02-13T08:41:05;102165.53;;;2.54;100.00
30598;BME280;17365;48.878;8.334;2023-02-13T08:43:31;102154.44;;;2.93;100.00
30598;BME280;17365;48.878;8.334;2023-02-13T08:45:59;102156.00;;;2.27;100.00
30598;BME280;17365;48.878;8.334;2023-02-13T08:48:28;102158.06;;;1.83;100.00
30598;BME280;17365;48.878;8.334;2023-02-13T08:50:54;102154.50;;;2.17;100.00
30598;BME280;17365;48.878;8.334;2023-02-13T08:53:19;102157.56;;;1.63;100.00
30598;BME280;17365;48.878;8.334;2023-02-13T08:55:54;102163.66;;;2.02;100.00
30598;BME280;17365;48.878;8.334;2023-02-13T08:58:20;102166.16;;;1.89;100.00
30598;BME280;17365;48.878;8.334;2023-02-13T09:00:46;102155.06;;;2.38;100.00
30598;BME280;17365;48.878;8.334;2023-02-13T09:03:11;102155.03;;;2.76;100.00
30598;BME280;17365;48.878;8.334;2023-02-13T09:05:36;102160.88;;;3.00;100.00
30598;BME280;17365;48.878;8.334;2023-02-13T09:08:02;102161.75;;;3.01;100.00
30598;BME280;17365;48.878;8.334;2023-02-13T09:10:28;102161.56;;;3.37;100.00
30598;BME280;17365;48.878;8.334;2023-02-13T09:12:53;102157.50;;;3.28;100.00
30598;BME280;17365;48.878;8.334;2023-02-13T09:15:19;102159.38;;;3.17;100.00
30598;BME280;17365;48.878;8.334;2023-02-13T09:17:44;102158.00;;;3.35;100.00
30598;BME280;17365;48.878;8.334;2023-02-13T09:20:10;102151.69;;;3.43;100.00
30598;BME280;17365;48.878;8.334;2023-02-13T09:22:38;102154.47;;;3.33;100.00
30598;BME280;17365;48.878;8.334;2023-02-13T09:25:03;102155.75;;;3.40;100.00
30598;BME280;17365;48.878;8.334;2023-02-13T09:27:29;102160.97;;;3.41;100.00
30598;BME280;17365;48.878;8.334;2023-02-13T09:29:54;102155.81;;;2.62;100.00
30598;BME280;17365;48.878;8.334;2023-02-13T09:32:20;102159.09;;;2.99;100.00
30598;BME280;17365;48.878;8.334;2023-02-13T09:34:45;102157.28;;;3.51;100.00
30598;BME280;17365;48.878;8.334;2023-02-13T09:37:11;102152.72;;;3.19;100.00
30598;BME280;17365;48.878;8.334;2023-02-13T09:39:36;102160.03;;;2.61;100.00
30598;BME280;17365;48.878;8.334;2023-02-13T09:42:05;102162.56;;;3.00;100.00
30598;BME280;17365;48.878;8.334;2023-02-13T09:44:40;102167.00;;;3.02;100.00
30598;BME280;17365;48.878;8.334;2023-02-13T09:47:16;102174.97;;;2.93;100.00
30598;BME280;17365;48.878;8.334;2023-02-13T09:49:48;102177.41;;;2.79;100.00
30598;BME280;17365;48.878;8.334;2023-02-13T09:52:15;102167.47;;;3.36;100.00
30598;BME280;17365;48.878;8.334;2023-02-13T09:54:40;102175.91;;;3.88;100.00
30598;BME280;17365;48.878;8.334;2023-02-13T10:19:04;102192.84;;;3.99;99.63
30598;BME280;17365;48.878;8.334;2023-02-13T10:21:40;102185.94;;;4.41;97.24
30598;BME280;17365;48.878;8.334;2023-02-13T10:24:30;102189.16;;;4.37;96.01
30598;BME280;17365;48.878;8.334;2023-02-13T10:27:01;102184.94;;;4.67;95.50
30598;BME280;17365;48.878;8.334;2023-02-13T10:29:39;102178.06;;;4.38;96.77
30598;BME280;17365;48.878;8.334;2023-02-13T10:35:29;102185.28;;;4.58;95.73
30598;BME280;17365;48.878;8.334;2023-02-13T10:37:57;102182.28;;;4.65;95.44
30598;BME280;17365;48.878;8.334;2023-02-13T10:40:30;102190.25;;;4.70;94.50
30598;BME280;17365;48.878;8.334;2023-02-13T10:43:06;102184.16;;;4.53;94.40
30598;BME280;17365;48.878;8.334;2023-02-13T10:46:06;102180.13;;;4.44;93.70
30598;BME280;17365;48.878;8.334;2023-02-13T10:51:26;102172.97;;;4.67;95.00
30598;BME280;17365;48.878;8.334;2023-02-13T10:54:23;102171.03;;;4.78;92.11
30598;BME280;17365;48.878;8.334;2023-02-13T10:57:22;102167.13;;;4.13;96.65
30598;BME280;17365;48.878;8.334;2023-02-13T11:02:56;102167.78;;;4.38;95.78
30598;BME280;17365;48.878;8.334;2023-02-13T11:05:31;102162.53;;;3.66;100.00
30598;BME280;17365;48.878;8.334;2023-02-13T11:07:58;102164.34;;;4.52;98.66
30598;BME280;17365;48.878;8.334;2023-02-13T11:10:25;102166.69;;;4.92;95.78
30598;BME280;17365;48.878;8.334;2023-02-13T11:12:51;102163.94;;;4.59;96.41
30598;BME280;17365;48.878;8.334;2023-02-13T11:15:21;102166.69;;;4.77;96.25
30598;BME280;17365;48.878;8.334;2023-02-13T11:17:48;102159.03;;;5.08;94.48
30598;BME280;17365;48.878;8.334;2023-02-13T11:20:36;102150.81;;;4.99;93.99
30598;BME280;17365;48.878;8.334;2023-02-13T11:26:02;102156.75;;;5.13;92.82
30598;BME280;17365;48.878;8.334;2023-02-13T11:28:30;102159.34;;;5.44;91.86
30598;BME280;17365;48.878;8.334;2023-02-13T11:31:32;102147.59;;;5.49;91.34
30598;BME280;17365;48.878;8.334;2023-02-13T11:33:59;102151.34;;;5.87;89.91
30598;BME280;17365;48.878;8.334;2023-02-13T11:36:41;102151.72;;;5.31;90.82
30598;BME280;17365;48.878;8.334;2023-02-13T11:39:17;102136.44;;;5.65;90.65
30598;BME280;17365;48.878;8.334;2023-02-13T11:41:45;102137.75;;;5.73;89.68
30598;BME280;17365;48.878;8.334;2023-02-13T11:44:31;102135.66;;;5.82;89.37
30598;BME280;17365;48.878;8.334;2023-02-13T11:46:59;102128.94;;;5.53;89.40
30598;BME280;17365;48.878;8.334;2023-02-13T11:49:36;102125.59;;;6.01;88.40
30598;BME280;17365;48.878;8.334;2023-02-13T11:52:05;102125.97;;;6.25;86.92
30598;BME280;17365;48.878;8.334;2023-02-13T11:57:16;102133.03;;;5.18;87.89
30598;BME280;17365;48.878;8.334;2023-02-13T11:59:45;102124.50;;;5.98;88.40
30598;BME280;17365;48.878;8.334;2023-02-13T12:02:22;102120.63;;;6.38;86.17
30598;BME280;17365;48.878;8.334;2023-02-13T12:04:50;102123.47;;;5.47;89.89
30598;BME280;17365;48.878;8.334;2023-02-13T12:07:19;102123.63;;;5.50;88.27
30598;BME280;17365;48.878;8.334;2023-02-13T12:09:52;102114.59;;;5.42;90.28
30598;BME280;17365;48.878;8.334;2023-02-13T12:12:24;102110.09;;;5.38;91.93
30598;BME280;17365;48.878;8.334;2023-02-13T12:14:51;102110.66;;;5.96;89.35
30598;BME280;17365;48.878;8.334;2023-02-13T12:17:22;102107.28;;;5.97;88.46
30598;BME280;17365;48.878;8.334;2023-02-13T12:19:50;102114.69;;;5.12;91.91
30598;BME280;17365;48.878;8.334;2023-02-13T12:22:29;102109.34;;;5.09;91.61
30598;BME280;17365;48.878;8.334;2023-02-13T12:28:13;102114.97;;;5.64;90.98
30598;BME280;17365;48.878;8.334;2023-02-13T12:33:49;102104.84;;;5.05;95.87
30598;BME280;17365;48.878;8.334;2023-02-13T12:47:21;102093.06;;;4.94;97.38
30598;BME280;17365;48.878;8.334;2023-02-13T12:50:16;102092.88;;;5.37;96.59
30598;BME280;17365;48.878;8.334;2023-02-13T12:53:01;102092.59;;;5.47;95.86
30598;BME280;17365;48.878;8.334;2023-02-13T13:01:07;102086.38;;;5.91;92.18
30598;BME280;17365;48.878;8.334;2023-02-13T13:03:51;102085.84;;;5.65;93.33
30598;BME280;17365;48.878;8.334;2023-02-13T13:14:53;102076.63;;;5.21;95.41
30598;BME280;17365;48.878;8.334;2023-02-13T13:22:49;102080.66;;;5.96;91.28
30598;BME280;17365;48.878;8.334;2023-02-13T13:25:33;102079.13;;;6.34;90.73
30598;BME280;17365;48.878;8.334;2023-02-13T13:28:14;102070.25;;;5.95;91.30
30598;BME280;17365;48.878;8.334;2023-02-13T13:30:42;102075.22;;;5.75;92.14
30598;BME280;17365;48.878;8.334;2023-02-13T13:33:19;102075.00;;;5.71;92.57
30598;BME280;17365;48.878;8.334;2023-02-13T13:36:00;102071.06;;;5.94;91.51
30598;BME280;17365;48.878;8.334;2023-02-13T13:38:51;102077.97;;;6.11;89.79
30598;BME280;17365;48.878;8.334;2023-02-13T13:41:34;102069.34;;;6.45;88.98
30598;BME280;17365;48.878;8.334;2023-02-13T13:44:12;102071.59;;;6.55;88.50
30598;BME280;17365;48.878;8.334;2023-02-13T13:54:50;102068.03;;;6.01;90.58
30598;BME280;17365;48.878;8.334;2023-02-13T13:57:57;102062.97;;;6.20;89.78
30598;BME280;17365;48.878;8.334;2023-02-13T14:07:53;102063.94;;;6.22;90.19
30598;BME280;17365;48.878;8.334;2023-02-13T14:12:46;102057.31;;;6.61;89.98
30598;BME280;17365;48.878;8.334;2023-02-13T14:18:18;102054.56;;;6.40;89.83
30598;BME280;17365;48.878;8.334;2023-02-13T14:23:46;102050.59;;;6.65;89.23
30598;BME280;17365;48.878;8.334;2023-02-13T14:33:42;102031.69;;;6.82;87.96
30598;BME280;17365;48.878;8.334;2023-02-13T14:36:19;102034.09;;;6.61;87.99
30598;BME280;17365;48.878;8.334;2023-02-13T14:38:56;102026.38;;;6.61;88.00
30598;BME280;17365;48.878;8.334;2023-02-13T14:44:49;102019.50;;;6.97;86.80
30598;BME280;17365;48.878;8.334;2023-02-13T14:47:19;102016.19;;;6.64;88.21
30598;BME280;17365;48.878;8.334;2023-02-13T14:49:47;102002.19;;;6.77;87.66
30598;BME280;17365;48.878;8.334;2023-02-13T14:52:19;102008.16;;;6.76;87.79
30598;BME280;17365;48.878;8.334;2023-02-13T14:54:58;102008.75;;;6.88;87.81
30598;BME280;17365;48.878;8.334;2023-02-13T14:57:29;102004.06;;;6.80;87.57
30598;BME280;17365;48.878;8.334;2023-02-13T15:00:00;101998.22;;;6.84;87.53
30598;BME280;17365;48.878;8.334;2023-02-13T15:02:33;102000.56;;;6.97;87.62
30598;BME280;17365;48.878;8.334;2023-02-13T15:07:40;101991.91;;;7.14;86.71
30598;BME280;17365;48.878;8.334;2023-02-13T15:10:35;101994.81;;;7.03;86.22
30598;BME280;17365;48.878;8.334;2023-02-13T15:13:14;101989.28;;;6.77;87.64
30598;BME280;17365;48.878;8.334;2023-02-13T15:15:40;101987.66;;;6.97;87.29
30598;BME280;17365;48.878;8.334;2023-02-13T15:18:29;101993.56;;;6.94;86.92
30598;BME280;17365;48.878;8.334;2023-02-13T15:20:56;101988.28;;;6.91;87.48
30598;BME280;17365;48.878;8.334;2023-02-13T15:23:27;101983.31;;;6.78;87.78
30598;BME280;17365;48.878;8.334;2023-02-13T15:26:01;101985.69;;;6.91;86.95
30598;BME280;17365;48.878;8.334;2023-02-13T15:28:31;101984.38;;;7.01;87.47
30598;BME280;17365;48.878;8.334;2023-02-13T15:31:17;101982.13;;;6.89;87.33
30598;BME280;17365;48.878;8.334;2023-02-13T15:33:46;101983.81;;;6.89;87.28
30598;BME280;17365;48.878;8.334;2023-02-13T15:36:21;101982.38;;;6.94;86.51
30598;BME280;17365;48.878;8.334;2023-02-13T15:38:47;101987.09;;;6.85;86.68
30598;BME280;17365;48.878;8.334;2023-02-13T15:41:19;101980.44;;;6.90;86.60
30598;BME280;17365;48.878;8.334;2023-02-13T15:43:49;101978.91;;;6.76;87.03